sensor_id;sensor_type;location;lat;lon;timestamp;pressure;altitude;pressure_sealevel;temperature;humidity
10716;BME280;5409;42.620;23.316;2024-01-25T00:00:40;92839.09;;;0.70;80.11
10716;BME280;5409;42.620;23.316;2024-01-25T00:03:06;92846.91;;;0.75;81.22
10716;BME280;5409;42.620;23.316;2024-01-25T00:05:31;92854.16;;;0.78;79.88
10716;BME280;5409;42.620;23.316;2024-01-25T00:07:57;92861.19;;;0.82;78.01
10716;BME280;5409;42.620;23.316;2024-01-25T00:10:23;92839.22;;;0.88;76.78
10716;BME280;5409;42.620;23.316;2024-01-25T00:12:48;92839.38;;;1.00;76.89
10716;BME280;5409;42.620;23.316;2024-01-25T00:15:14;92829.94;;;1.07;74.22
10716;BME280;5409;42.620;23.316;2024-01-25T00:17:39;92815.75;;;1.17;70.49
10716;BME280;5409;42.620;23.316;2024-01-25T00:20:05;92811.06;;;1.21;73.73
10716;BME280;5409;42.620;23.316;2024-01-25T00:22:30;92802.03;;;1.18;71.90
10716;BME280;5409;42.620;23.316;2024-01-25T00:24:56;92784.59;;;1.15;72.77
10716;BME280;5409;42.620;23.316;2024-01-25T00:27:22;92748.78;;;1.28;71.82
10716;BME280;5409;42.620;23.316;2024-01-25T00:29:48;92721.16;;;1.25;74.24
10716;BME280;5409;42.620;23.316;2024-01-25T00:32:13;92693.16;;;1.12;72.80
10716;BME280;5409;42.620;23.316;2024-01-25T00:34:38;92715.19;;;1.31;76.32
10716;BME280;5409;42.620;23.316;2024-01-25T00:37:04;92722.25;;;1.61;77.21
10716;BME280;5409;42.620;23.316;2024-01-25T00:39:30;92723.78;;;2.66;75.87
10716;BME280;5409;42.620;23.316;2024-01-25T00:42:01;92716.09;;;3.67;72.99
10716;BME280;5409;42.620;23.316;2024-01-25T00:44:28;92720.84;;;3.64;72.91
10716;BME280;5409;42.620;23.316;2024-01-25T00:46:54;92726.50;;;3.54;72.86
10716;BME280;5409;42.620;23.316;2024-01-25T00:49:20;92756.31;;;3.37;69.44
10716;BME280;5409;42.620;23.316;2024-01-25T00:51:47;92758.16;;;3.30;69.80
10716;BME280;5409;42.620;23.316;2024-01-25T00:54:16;92751.38;;;3.24;65.11
10716;BME280;5409;42.620;23.316;2024-01-25T00:56:42;92733.59;;;2.99;65.03
10716;BME280;5409;42.620;23.316;2024-01-25T00:59:07;92733.97;;;2.84;65.94
10716;BME280;5409;42.620;23.316;2024-01-25T01:01:33;92723.50;;;2.56;66.20
10716;BME280;5409;42.620;23.316;2024-01-25T01:03:59;92724.50;;;2.37;70.25
10716;BME280;5409;42.620;23.316;2024-01-25T01:06:25;92741.50;;;2.43;70.86
10716;BME280;5409;42.620;23.316;2024-01-25T01:08:51;92739.09;;;2.84;71.28
10716;BME280;5409;42.620;23.316;2024-01-25T01:11:17;92730.53;;;3.20;70.65
10716;BME280;5409;42.620;23.316;2024-01-25T01:13:42;92728.94;;;3.49;70.19
10716;BME280;5409;42.620;23.316;2024-01-25T01:16:07;92738.47;;;3.83;69.23
10716;BME280;5409;42.620;23.316;2024-01-25T01:18:33;92748.06;;;3.76;67.82
10716;BME280;5409;42.620;23.316;2024-01-25T01:20:59;92750.88;;;3.45;63.87
10716;BME280;5409;42.620;23.316;2024-01-25T01:23:25;92753.63;;;3.32;64.88
10716;BME280;5409;42.620;23.316;2024-01-25T01:25:50;92751.38;;;2.94;65.08
10716;BME280;5409;42.620;23.316;2024-01-25T01:28:15;92733.56;;;2.69;65.09
10716;BME280;5409;42.620;23.316;2024-01-25T01:30:41;92703.69;;;2.81;67.35
10716;BME280;5409;42.620;23.316;2024-01-25T01:33:10;92685.72;;;2.88;68.12
10716;BME280;5409;42.620;23.316;2024-01-25T01:35:35;92689.44;;;3.57;67.64
10716;BME280;5409;42.620;23.316;2024-01-25T01:38:01;92698.03;;;4.09;66.53
10716;BME280;5409;42.620;23.316;2024-01-25T01:40:26;92686.47;;;4.58;65.97
10716;BME280;5409;42.620;23.316;2024-01-25T01:42:51;92687.66;;;5.07;64.22
10716;BME280;5409;42.620;23.316;2024-01-25T01:45:17;92674.41;;;5.43;62.69
10716;BME280;5409;42.620;23.316;2024-01-25T01:47:42;92672.00;;;5.70;63.21
10716;BME280;5409;42.620;23.316;2024-01-25T01:50:09;92661.72;;;5.87;63.62
10716;BME280;5409;42.620;23.316;2024-01-25T01:52:34;92657.06;;;6.22;61.53
10716;BME280;5409;42.620;23.316;2024-01-25T01:55:00;92654.47;;;6.00;62.88
10716;BME280;5409;42.620;23.316;2024-01-25T01:57:26;92666.78;;;5.98;63.24
10716;BME280;5409;42.620;23.316;2024-01-25T01:59:52;92659.09;;;6.20;61.48
10716;BME280;5409;42.620;23.316;2024-01-25T02:02:18;92659.88;;;6.21;62.02
10716;BME280;5409;42.620;23.316;2024-01-25T02:04:43;92670.34;;;6.14;61.80
10716;BME280;5409;42.620;23.316;2024-01-25T02:07:09;92683.59;;;6.06;62.14
10716;BME280;5409;42.620;23.316;2024-01-25T02:09:35;92674.38;;;6.10;61.12
10716;BME280;5409;42.620;23.316;2024-01-25T02:12:03;92671.44;;;6.18;60.97
10716;BME280;5409;42.620;23.316;2024-01-25T02:14:30;92656.84;;;6.24;61.09
10716;BME280;5409;42.620;23.316;2024-01-25T02:16:56;92658.22;;;6.31;60.90
10716;BME280;5409;42.620;23.316;2024-01-25T02:19:21;92666.50;;;6.33;60.22
10716;BME280;5409;42.620;23.316;2024-01-25T02:21:47;92671.78;;;6.27;61.00
10716;BME280;5409;42.620;23.316;2024-01-25T02:24:13;92687.59;;;6.35;61.11
10716;BME280;5409;42.620;23.316;2024-01-25T02:26:39;92674.06;;;6.23;60.93
10716;BME280;5409;42.620;23.316;2024-01-25T02:29:04;92679.66;;;6.20;62.14
10716;BME280;5409;42.620;23.316;2024-01-25T02:31:31;92688.22;;;6.04;63.03
10716;BME280;5409;42.620;23.316;2024-01-25T02:33:56;92663.81;;;6.06;64.08
10716;BME280;5409;42.620;23.316;2024-01-25T02:36:22;92668.44;;;6.26;62.95
10716;BME280;5409;42.620;23.316;2024-01-25T02:38:48;92640.72;;;6.11;63.05
10716;BME280;5409;42.620;23.316;2024-01-25T02:41:13;92662.22;;;6.22;63.21
10716;BME280;5409;42.620;23.316;2024-01-25T02:43:38;92661.94;;;6.19;63.35
10716;BME280;5409;42.620;23.316;2024-01-25T02:46:04;92646.66;;;6.12;62.84
10716;BME280;5409;42.620;23.316;2024-01-25T02:48:29;92649.91;;;6.24;63.64
10716;BME280;5409;42.620;23.316;2024-01-25T02:50:54;92631.97;;;6.29;62.45
10716;BME280;5409;42.620;23.316;2024-01-25T02:53:20;92618.56;;;6.27;62.17
10716;BME280;5409;42.620;23.316;2024-01-25T02:55:45;92607.84;;;6.57;59.54
10716;BME280;5409;42.620;23.316;2024-01-25T02:58:10;92564.13;;;6.35;59.88
10716;BME280;5409;42.620;23.316;2024-01-25T03:00:36;92617.66;;;6.60;59.83
10716;BME280;5409;42.620;23.316;2024-01-25T03:03:01;92620.41;;;6.53;60.52
10716;BME280;5409;42.620;23.316;2024-01-25T03:05:26;92645.00;;;6.44;60.97
10716;BME280;5409;42.620;23.316;2024-01-25T03:07:52;92655.22;;;6.39;61.04
10716;BME280;5409;42.620;23.316;2024-01-25T03:10:17;92674.47;;;6.15;62.62
10716;BME280;5409;42.620;23.316;2024-01-25T03:12:43;92678.84;;;6.15;62.11
10716;BME280;5409;42.620;23.316;2024-01-25T03:15:10;92653.94;;;6.20;62.48
10716;BME280;5409;42.620;23.316;2024-01-25T03:17:36;92655.16;;;6.13;63.50
10716;BME280;5409;42.620;23.316;2024-01-25T03:20:01;92654.94;;;6.14;63.91
10716;BME280;5409;42.620;23.316;2024-01-25T03:22:27;92619.38;;;6.11;63.25
10716;BME280;5409;42.620;23.316;2024-01-25T03:24:52;92628.88;;;6.10;63.56
10716;BME280;5409;42.620;23.316;2024-01-25T03:27:18;92631.72;;;6.09;63.29
10716;BME280;5409;42.620;23.316;2024-01-25T03:29:43;92626.69;;;6.19;62.54
10716;BME280;5409;42.620;23.316;2024-01-25T03:32:12;92610.50;;;6.19;62.99
10716;BME280;5409;42.620;23.316;2024-01-25T03:34:37;92608.16;;;6.17;62.16
10716;BME280;5409;42.620;23.316;2024-01-25T03:37:03;92604.28;;;6.15;62.61
10716;BME280;5409;42.620;23.316;2024-01-25T03:39:28;92620.94;;;6.12;63.06
10716;BME280;5409;42.620;23.316;2024-01-25T03:41:53;92614.09;;;6.01;63.46
10716;BME280;5409;42.620;23.316;2024-01-25T03:44:19;92601.19;;;5.96;62.29
10716;BME280;5409;42.620;23.316;2024-01-25T03:46:44;92571.66;;;5.98;62.00
10716;BME280;5409;42.620;23.316;2024-01-25T03:49:09;92575.47;;;5.96;63.07
10716;BME280;5409;42.620;23.316;2024-01-25T03:51:35;92578.75;;;5.91;63.08
10716;BME280;5409;42.620;23.316;2024-01-25T03:54:00;92572.00;;;5.85;62.17
10716;BME280;5409;42.620;23.316;2024-01-25T03:56:25;92600.66;;;5.94;62.83
10716;BME280;5409;42.620;23.316;2024-01-25T03:58:52;92577.28;;;6.17;60.64
10716;BME280;5409;42.620;23.316;2024-01-25T04:01:17;92555.03;;;6.06;61.00
10716;BME280;5409;42.620;23.316;2024-01-25T04:03:43;92560.59;;;5.98;61.03
10716;BME280;5409;42.620;23.316;2024-01-25T04:06:08;92555.88;;;5.90;61.68
10716;BME280;5409;42.620;23.316;2024-01-25T04:08:33;92564.66;;;5.94;60.47
10716;BME280;5409;42.620;23.316;2024-01-25T04:10:59;92587.38;;;6.02;60.00
10716;BME280;5409;42.620;23.316;2024-01-25T04:13:24;92583.03;;;6.02;59.64
10716;BME280;5409;42.620;23.316;2024-01-25T04:15:50;92576.09;;;6.03;61.15
10716;BME280;5409;42.620;23.316;2024-01-25T04:18:15;92563.97;;;5.82;61.23
10716;BME280;5409;42.620;23.316;2024-01-25T04:20:41;92572.03;;;5.68;60.94
10716;BME280;5409;42.620;23.316;2024-01-25T04:23:06;92579.59;;;5.97;60.95
10716;BME280;5409;42.620;23.316;2024-01-25T04:25:32;92569.38;;;6.02;60.17
10716;BME280;5409;42.620;23.316;2024-01-25T04:27:57;92575.03;;;5.99;60.01
10716;BME280;5409;42.620;23.316;2024-01-25T04:30:23;92560.53;;;5.93;60.27
10716;BME280;5409;42.620;23.316;2024-01-25T04:32:48;92559.47;;;5.89;60.39
10716;BME280;5409;42.620;23.316;2024-01-25T04:35:13;92552.75;;;5.88;60.00
10716;BME280;5409;42.620;23.316;2024-01-25T04:37:39;92518.47;;;5.60;57.91
10716;BME280;5409;42.620;23.316;2024-01-25T04:40:05;92549.19;;;5.89;54.92
10716;BME280;5409;42.620;23.316;2024-01-25T04:42:31;92562.41;;;5.97;55.69
10716;BME280;5409;42.620;23.316;2024-01-25T04:44:56;92582.25;;;6.02;55.66
10716;BME280;5409;42.620;23.316;2024-01-25T04:47:22;92583.56;;;6.04;54.70
10716;BME280;5409;42.620;23.316;2024-01-25T04:49:47;92597.22;;;6.05;56.01
10716;BME280;5409;42.620;23.316;2024-01-25T04:52:13;92582.31;;;6.07;56.43
10716;BME280;5409;42.620;23.316;2024-01-25T04:54:38;92614.59;;;5.98;56.89
10716;BME280;5409;42.620;23.316;2024-01-25T04:57:04;92610.38;;;5.92;55.92
10716;BME280;5409;42.620;23.316;2024-01-25T04:59:35;92612.88;;;5.87;56.05
10716;BME280;5409;42.620;23.316;2024-01-25T05:02:00;92619.34;;;5.73;56.08
10716;BME280;5409;42.620;23.316;2024-01-25T05:04:28;92620.84;;;5.68;55.71
10716;BME280;5409;42.620;23.316;2024-01-25T05:06:54;92641.31;;;5.63;56.94
10716;BME280;5409;42.620;23.316;2024-01-25T05:09:19;92638.75;;;5.63;55.09
10716;BME280;5409;42.620;23.316;2024-01-25T05:11:45;92630.34;;;5.51;56.84
10716;BME280;5409;42.620;23.316;2024-01-25T05:14:11;92619.53;;;5.49;56.38
10716;BME280;5409;42.620;23.316;2024-01-25T05:16:36;92633.78;;;5.40;56.52
10716;BME280;5409;42.620;23.316;2024-01-25T05:19:02;92640.41;;;5.36;55.86
10716;BME280;5409;42.620;23.316;2024-01-25T05:21:27;92647.63;;;5.39;56.75
10716;BME280;5409;42.620;23.316;2024-01-25T05:23:53;92652.22;;;5.37;57.06
10716;BME280;5409;42.620;23.316;2024-01-25T05:26:18;92663.03;;;5.39;56.08
10716;BME280;5409;42.620;23.316;2024-01-25T05:28:44;92673.44;;;5.33;57.37
10716;BME280;5409;42.620;23.316;2024-01-25T05:31:09;92681.09;;;5.28;57.43
10716;BME280;5409;42.620;23.316;2024-01-25T05:33:40;92677.56;;;5.17;57.33
10716;BME280;5409;42.620;23.316;2024-01-25T05:36:06;92671.44;;;5.18;56.84
10716;BME280;5409;42.620;23.316;2024-01-25T05:38:31;92690.66;;;5.04;58.84
10716;BME280;5409;42.620;23.316;2024-01-25T05:40:57;92661.69;;;5.03;57.60
10716;BME280;5409;42.620;23.316;2024-01-25T05:43:23;92680.97;;;5.06;57.13
10716;BME280;5409;42.620;23.316;2024-01-25T05:45:48;92682.88;;;4.99;58.96
10716;BME280;5409;42.620;23.316;2024-01-25T05:48:14;92680.09;;;5.00;59.21
10716;BME280;5409;42.620;23.316;2024-01-25T05:50:40;92674.72;;;5.02;58.69
10716;BME280;5409;42.620;23.316;2024-01-25T05:53:05;92704.06;;;5.06;58.23
10716;BME280;5409;42.620;23.316;2024-01-25T05:55:30;92666.56;;;5.05;58.62
10716;BME280;5409;42.620;23.316;2024-01-25T05:57:56;92688.78;;;4.99;59.91
10716;BME280;5409;42.620;23.316;2024-01-25T06:00:21;92718.66;;;4.89;60.06
10716;BME280;5409;42.620;23.316;2024-01-25T06:02:47;92699.44;;;4.91;59.33
10716;BME280;5409;42.620;23.316;2024-01-25T06:05:12;92705.81;;;4.89;59.46
10716;BME280;5409;42.620;23.316;2024-01-25T06:07:37;92702.59;;;4.81;59.73
10716;BME280;5409;42.620;23.316;2024-01-25T06:10:03;92718.44;;;4.78;60.32
10716;BME280;5409;42.620;23.316;2024-01-25T06:12:29;92712.88;;;4.70;61.25
10716;BME280;5409;42.620;23.316;2024-01-25T06:14:54;92712.13;;;4.69;61.19
10716;BME280;5409;42.620;23.316;2024-01-25T06:17:19;92721.50;;;4.64;60.52
10716;BME280;5409;42.620;23.316;2024-01-25T06:19:45;92725.63;;;4.53;60.35
10716;BME280;5409;42.620;23.316;2024-01-25T06:22:10;92738.78;;;4.57;60.95
10716;BME280;5409;42.620;23.316;2024-01-25T06:24:37;92742.59;;;4.54;60.76
10716;BME280;5409;42.620;23.316;2024-01-25T06:27:03;92728.41;;;4.52;61.84
10716;BME280;5409;42.620;23.316;2024-01-25T06:29:28;92696.13;;;4.27;61.60
10716;BME280;5409;42.620;23.316;2024-01-25T06:31:54;92716.16;;;4.54;60.58
10716;BME280;5409;42.620;23.316;2024-01-25T06:34:19;92722.84;;;4.55;61.04
10716;BME280;5409;42.620;23.316;2024-01-25T06:36:45;92718.84;;;4.47;60.36
10716;BME280;5409;42.620;23.316;2024-01-25T06:39:10;92728.31;;;4.58;60.92
10716;BME280;5409;42.620;23.316;2024-01-25T06:41:35;92731.97;;;4.62;59.89
10716;BME280;5409;42.620;23.316;2024-01-25T06:44:01;92718.31;;;4.45;60.10
10716;BME280;5409;42.620;23.316;2024-01-25T06:46:26;92729.97;;;4.53;60.41
10716;BME280;5409;42.620;23.316;2024-01-25T06:48:52;92730.75;;;4.53;59.69
10716;BME280;5409;42.620;23.316;2024-01-25T06:51:17;92729.09;;;4.47;59.60
10716;BME280;5409;42.620;23.316;2024-01-25T06:53:43;92735.91;;;4.53;59.83
10716;BME280;5409;42.620;23.316;2024-01-25T06:56:08;92733.44;;;4.58;59.95
10716;BME280;5409;42.620;23.316;2024-01-25T06:58:34;92747.16;;;4.52;60.11
10716;BME280;5409;42.620;23.316;2024-01-25T07:00:59;92749.94;;;4.62;58.86
10716;BME280;5409;42.620;23.316;2024-01-25T07:03:25;92754.84;;;4.64;58.82
10716;BME280;5409;42.620;23.316;2024-01-25T07:05:50;92745.91;;;4.66;59.79
10716;BME280;5409;42.620;23.316;2024-01-25T07:08:15;92740.66;;;4.61;59.36
10716;BME280;5409;42.620;23.316;2024-01-25T07:10:42;92744.03;;;4.62;58.45
10716;BME280;5409;42.620;23.316;2024-01-25T07:13:07;92726.16;;;4.67;57.73
10716;BME280;5409;42.620;23.316;2024-01-25T07:15:32;92712.56;;;4.66;58.01
10716;BME280;5409;42.620;23.316;2024-01-25T07:17:58;92704.22;;;4.59;58.83
10716;BME280;5409;42.620;23.316;2024-01-25T07:20:23;92689.84;;;4.58;57.90
10716;BME280;5409;42.620;23.316;2024-01-25T07:22:48;92683.03;;;4.52;58.44
10716;BME280;5409;42.620;23.316;2024-01-25T07:25:14;92688.84;;;4.59;58.38
10716;BME280;5409;42.620;23.316;2024-01-25T07:27:39;92695.50;;;4.60;57.56
10716;BME280;5409;42.620;23.316;2024-01-25T07:30:05;92719.38;;;4.61;57.45
10716;BME280;5409;42.620;23.316;2024-01-25T07:32:30;92719.63;;;4.59;57.45
10716;BME280;5409;42.620;23.316;2024-01-25T07:34:57;92686.84;;;4.38;58.04
10716;BME280;5409;42.620;23.316;2024-01-25T07:37:23;92721.16;;;4.60;57.57
10716;BME280;5409;42.620;23.316;2024-01-25T07:39:48;92698.09;;;4.49;56.59
10716;BME280;5409;42.620;23.316;2024-01-25T07:42:13;92735.00;;;4.59;57.98
10716;BME280;5409;42.620;23.316;2024-01-25T07:44:39;92727.63;;;4.51;58.75
10716;BME280;5409;42.620;23.316;2024-01-25T07:47:04;92733.88;;;4.55;57.89
10716;BME280;5409;42.620;23.316;2024-01-25T07:49:30;92737.66;;;4.64;57.58
10716;BME280;5409;42.620;23.316;2024-01-25T07:51:55;92740.34;;;4.69;56.85
10716;BME280;5409;42.620;23.316;2024-01-25T07:54:21;92741.88;;;4.70;56.66
10716;BME280;5409;42.620;23.316;2024-01-25T07:56:47;92742.66;;;4.71;56.45
10716;BME280;5409;42.620;23.316;2024-01-25T07:59:12;92735.84;;;4.65;57.83
10716;BME280;5409;42.620;23.316;2024-01-25T08:01:37;92762.41;;;4.70;57.07
10716;BME280;5409;42.620;23.316;2024-01-25T08:04:03;92756.47;;;4.70;57.74
10716;BME280;5409;42.620;23.316;2024-01-25T08:06:28;92737.53;;;4.71;57.00
10716;BME280;5409;42.620;23.316;2024-01-25T08:08:54;92740.09;;;4.71;56.97
10716;BME280;5409;42.620;23.316;2024-01-25T08:11:20;92703.53;;;4.64;56.14
10716;BME280;5409;42.620;23.316;2024-01-25T08:13:45;92707.16;;;4.79;55.67
10716;BME280;5409;42.620;23.316;2024-01-25T08:16:12;92708.50;;;4.82;55.89
10716;BME280;5409;42.620;23.316;2024-01-25T08:18:39;92720.44;;;4.76;54.69
10716;BME280;5409;42.620;23.316;2024-01-25T08:21:04;92706.63;;;4.77;55.62
10716;BME280;5409;42.620;23.316;2024-01-25T08:23:30;92698.25;;;4.82;55.61
10716;BME280;5409;42.620;23.316;2024-01-25T08:25:55;92713.94;;;4.86;55.16
10716;BME280;5409;42.620;23.316;2024-01-25T08:28:21;92695.31;;;4.90;53.19
10716;BME280;5409;42.620;23.316;2024-01-25T08:30:47;92714.59;;;4.93;53.75
10716;BME280;5409;42.620;23.316;2024-01-25T08:33:13;92716.94;;;4.94;52.88
10716;BME280;5409;42.620;23.316;2024-01-25T08:35:38;92697.19;;;4.95;52.49
10716;BME280;5409;42.620;23.316;2024-01-25T08:38:06;92711.03;;;4.94;53.56
10716;BME280;5409;42.620;23.316;2024-01-25T08:40:32;92704.19;;;4.99;52.70
10716;BME280;5409;42.620;23.316;2024-01-25T08:42:57;92727.06;;;5.01;53.30
10716;BME280;5409;42.620;23.316;2024-01-25T08:45:23;92730.19;;;5.03;52.45
10716;BME280;5409;42.620;23.316;2024-01-25T08:47:48;92733.88;;;5.07;53.33
10716;BME280;5409;42.620;23.316;2024-01-25T08:50:14;92741.66;;;5.12;53.76
10716;BME280;5409;42.620;23.316;2024-01-25T08:52:40;92738.19;;;5.18;53.58
10716;BME280;5409;42.620;23.316;2024-01-25T08:55:06;92744.41;;;5.22;52.76
10716;BME280;5409;42.620;23.316;2024-01-25T08:57:32;92758.03;;;5.22;52.37
10716;BME280;5409;42.620;23.316;2024-01-25T08:59:57;92752.66;;;5.24;53.24
10716;BME280;5409;42.620;23.316;2024-01-25T09:02:26;92735.84;;;5.33;52.44
10716;BME280;5409;42.620;23.316;2024-01-25T09:04:55;92730.91;;;5.43;53.61
10716;BME280;5409;42.620;23.316;2024-01-25T09:07:20;92734.66;;;5.52;53.54
10716;BME280;5409;42.620;23.316;2024-01-25T09:09:46;92739.00;;;5.52;54.20
10716;BME280;5409;42.620;23.316;2024-01-25T09:12:11;92739.69;;;5.47;53.40
10716;BME280;5409;42.620;23.316;2024-01-25T09:14:38;92748.19;;;5.48;55.24
10716;BME280;5409;42.620;23.316;2024-01-25T09:17:03;92736.41;;;5.35;54.50
10716;BME280;5409;42.620;23.316;2024-01-25T09:19:29;92739.03;;;5.23;54.53
10716;BME280;5409;42.620;23.316;2024-01-25T09:21:55;92745.78;;;5.13;55.21
10716;BME280;5409;42.620;23.316;2024-01-25T09:24:22;92750.47;;;5.16;56.21
10716;BME280;5409;42.620;23.316;2024-01-25T09:26:47;92747.38;;;5.31;55.65
10716;BME280;5409;42.620;23.316;2024-01-25T09:29:12;92734.94;;;5.39;55.84
10716;BME280;5409;42.620;23.316;2024-01-25T09:31:38;92744.41;;;5.50;55.95
10716;BME280;5409;42.620;23.316;2024-01-25T09:34:03;92744.75;;;5.42;55.79
10716;BME280;5409;42.620;23.316;2024-01-25T09:36:28;92734.75;;;5.29;55.60
10716;BME280;5409;42.620;23.316;2024-01-25T09:38:53;92742.25;;;5.47;56.74
10716;BME280;5409;42.620;23.316;2024-01-25T09:41:19;92744.31;;;5.62;54.90
10716;BME280;5409;42.620;23.316;2024-01-25T09:43:45;92733.88;;;5.52;54.26
10716;BME280;5409;42.620;23.316;2024-01-25T09:46:13;92730.75;;;5.50;56.12
10716;BME280;5409;42.620;23.316;2024-01-25T09:48:39;92731.16;;;5.58;56.70
10716;BME280;5409;42.620;23.316;2024-01-25T09:51:05;92717.88;;;5.61;54.70
10716;BME280;5409;42.620;23.316;2024-01-25T09:53:32;92712.09;;;5.54;54.52
10716;BME280;5409;42.620;23.316;2024-01-25T09:56:09;92708.25;;;5.57;56.07
10716;BME280;5409;42.620;23.316;2024-01-25T09:58:44;92698.84;;;5.62;55.31
10716;BME280;5409;42.620;23.316;2024-01-25T10:01:13;92702.75;;;5.65;54.21
10716;BME280;5409;42.620;23.316;2024-01-25T10:03:47;92698.06;;;5.62;54.62
10716;BME280;5409;42.620;23.316;2024-01-25T10:06:13;92679.91;;;5.52;54.96
10716;BME280;5409;42.620;23.316;2024-01-25T10:08:39;92710.22;;;5.50;54.72
10716;BME280;5409;42.620;23.316;2024-01-25T10:11:05;92676.97;;;5.43;55.20
10716;BME280;5409;42.620;23.316;2024-01-25T10:13:30;92681.25;;;5.54;55.13
10716;BME280;5409;42.620;23.316;2024-01-25T10:15:57;92682.72;;;5.67;54.83
10716;BME280;5409;42.620;23.316;2024-01-25T10:18:23;92675.03;;;5.67;53.88
10716;BME280;5409;42.620;23.316;2024-01-25T10:20:48;92663.50;;;5.69;55.48
10716;BME280;5409;42.620;23.316;2024-01-25T10:23:14;92667.25;;;5.79;55.12
10716;BME280;5409;42.620;23.316;2024-01-25T10:25:39;92673.66;;;5.93;53.09
10716;BME280;5409;42.620;23.316;2024-01-25T10:28:07;92657.09;;;6.05;52.02
10716;BME280;5409;42.620;23.316;2024-01-25T10:30:35;92669.94;;;6.44;53.61
10716;BME280;5409;42.620;23.316;2024-01-25T10:33:01;92655.59;;;6.48;51.19
10716;BME280;5409;42.620;23.316;2024-01-25T10:35:27;92664.03;;;6.43;51.85
10716;BME280;5409;42.620;23.316;2024-01-25T10:37:53;92664.34;;;6.47;50.54
10716;BME280;5409;42.620;23.316;2024-01-25T10:40:19;92663.59;;;6.30;51.29
10716;BME280;5409;42.620;23.316;2024-01-25T10:42:46;92673.81;;;6.25;51.52
10716;BME280;5409;42.620;23.316;2024-01-25T10:45:12;92673.75;;;6.20;51.72
10716;BME280;5409;42.620;23.316;2024-01-25T10:47:38;92648.22;;;6.13;51.04
10716;BME280;5409;42.620;23.316;2024-01-25T10:50:07;92642.53;;;6.11;52.61
10716;BME280;5409;42.620;23.316;2024-01-25T10:52:34;92641.56;;;6.17;51.53
10716;BME280;5409;42.620;23.316;2024-01-25T10:55:01;92642.72;;;6.26;51.62
10716;BME280;5409;42.620;23.316;2024-01-25T10:57:35;92645.66;;;6.35;50.98
10716;BME280;5409;42.620;23.316;2024-01-25T11:00:01;92651.13;;;6.38;50.30
10716;BME280;5409;42.620;23.316;2024-01-25T11:02:29;92647.28;;;6.19;49.71
10716;BME280;5409;42.620;23.316;2024-01-25T11:04:54;92661.50;;;6.05;49.64
10716;BME280;5409;42.620;23.316;2024-01-25T11:07:20;92653.91;;;5.82;50.40
10716;BME280;5409;42.620;23.316;2024-01-25T11:09:47;92647.25;;;5.81;52.92
10716;BME280;5409;42.620;23.316;2024-01-25T11:12:17;92633.75;;;5.74;49.79
10716;BME280;5409;42.620;23.316;2024-01-25T11:14:43;92618.81;;;5.71;50.73
10716;BME280;5409;42.620;23.316;2024-01-25T11:17:24;92612.06;;;5.86;49.96
10716;BME280;5409;42.620;23.316;2024-01-25T11:19:49;92605.97;;;5.87;51.04
10716;BME280;5409;42.620;23.316;2024-01-25T11:22:15;92564.78;;;5.65;50.41
10716;BME280;5409;42.620;23.316;2024-01-25T11:24:41;92610.94;;;5.94;51.61
10716;BME280;5409;42.620;23.316;2024-01-25T11:27:09;92604.16;;;5.88;51.57
10716;BME280;5409;42.620;23.316;2024-01-25T11:29:35;92608.63;;;5.76;51.10
10716;BME280;5409;42.620;23.316;2024-01-25T11:32:03;92605.28;;;5.58;50.57
10716;BME280;5409;42.620;23.316;2024-01-25T11:34:29;92597.50;;;5.53;51.10
10716;BME280;5409;42.620;23.316;2024-01-25T11:36:56;92604.97;;;5.38;52.47
10716;BME280;5409;42.620;23.316;2024-01-25T11:39:23;92611.13;;;5.37;54.05
10716;BME280;5409;42.620;23.316;2024-01-25T11:41:51;92598.13;;;5.27;52.86
10716;BME280;5409;42.620;23.316;2024-01-25T11:44:16;92616.66;;;5.29;53.74
10716;BME280;5409;42.620;23.316;2024-01-25T11:46:42;92605.38;;;5.30;52.67
10716;BME280;5409;42.620;23.316;2024-01-25T11:49:08;92596.19;;;5.34;53.92
10716;BME280;5409;42.620;23.316;2024-01-25T11:51:33;92597.75;;;5.35;52.29
10716;BME280;5409;42.620;23.316;2024-01-25T11:53:59;92612.16;;;5.36;53.32
10716;BME280;5409;42.620;23.316;2024-01-25T11:56:28;92597.81;;;5.40;53.41
10716;BME280;5409;42.620;23.316;2024-01-25T11:58:56;92575.75;;;5.22;53.03
10716;BME280;5409;42.620;23.316;2024-01-25T12:01:24;92581.25;;;5.31;53.04
10716;BME280;5409;42.620;23.316;2024-01-25T12:03:49;92597.75;;;5.35;52.76
10716;BME280;5409;42.620;23.316;2024-01-25T12:06:15;92589.97;;;5.30;53.23
10716;BME280;5409;42.620;23.316;2024-01-25T12:08:41;92611.50;;;5.29;53.86
10716;BME280;5409;42.620;23.316;2024-01-25T12:11:08;92620.28;;;5.33;52.33
10716;BME280;5409;42.620;23.316;2024-01-25T12:13:35;92617.97;;;5.32;52.86
10716;BME280;5409;42.620;23.316;2024-01-25T12:16:02;92605.28;;;5.25;53.32
10716;BME280;5409;42.620;23.316;2024-01-25T12:18:29;92609.50;;;5.31;54.04
10716;BME280;5409;42.620;23.316;2024-01-25T12:20:57;92599.75;;;5.33;54.13
10716;BME280;5409;42.620;23.316;2024-01-25T12:23:22;92590.50;;;5.32;52.83
10716;BME280;5409;42.620;23.316;2024-01-25T12:25:47;92588.97;;;5.31;51.92
10716;BME280;5409;42.620;23.316;2024-01-25T12:28:13;92588.25;;;5.36;52.21
10716;BME280;5409;42.620;23.316;2024-01-25T12:30:39;92589.19;;;5.46;51.87
10716;BME280;5409;42.620;23.316;2024-01-25T12:33:04;92602.09;;;5.51;52.82
10716;BME280;5409;42.620;23.316;2024-01-25T12:35:29;92597.72;;;5.52;52.85
10716;BME280;5409;42.620;23.316;2024-01-25T12:37:55;92589.56;;;5.55;51.81
10716;BME280;5409;42.620;23.316;2024-01-25T12:40:20;92587.50;;;5.57;51.91
10716;BME280;5409;42.620;23.316;2024-01-25T12:42:45;92570.09;;;5.59;51.35
10716;BME280;5409;42.620;23.316;2024-01-25T12:45:11;92565.50;;;5.61;50.89
10716;BME280;5409;42.620;23.316;2024-01-25T12:47:36;92545.19;;;5.59;50.72
10716;BME280;5409;42.620;23.316;2024-01-25T12:50:02;92555.22;;;5.61;51.15
10716;BME280;5409;42.620;23.316;2024-01-25T12:52:27;92542.59;;;5.59;48.09
10716;BME280;5409;42.620;23.316;2024-01-25T12:54:52;92545.47;;;5.63;49.04
10716;BME280;5409;42.620;23.316;2024-01-25T12:57:18;92516.91;;;5.59;48.98
10716;BME280;5409;42.620;23.316;2024-01-25T12:59:44;92528.63;;;5.72;48.85
10716;BME280;5409;42.620;23.316;2024-01-25T13:02:11;92535.69;;;5.82;48.48